Chelatchie, Washington
Current Conditions -  °F | °C
As of 11:53 AM on Saturday 25 Oct 2014 (Local Time) from KVUO Reporting Station
Light Rain Light Rain  
Wind Chill: 58°   Ceiling: 7000
Heat Index: 58°   Visibility: 10mi
Dew Point: 50°   Wind: 10mph
Humidity: 75%   Direction: 130°SE
Pressure: 29.4"   Gusts: 23mph
Location:  45.956°N, 122.371°W
Report Text: KVUO 251853Z AUTO 13009G20KT 10SM -RA OVC070 14/10 A2940 RMK AO2 RAB39 SLP954 P0000 T01440100
Loading
Personal Weather Stations






























Interactive Weather Map
Tropical Storm Tracking
New forecast layout! Learn more

10-Day Weather Forecast

Advertisements
Track Severe Weather on mobile